Terminal Aerodrome Forecast
Issued by NWS Albany, NY

Current Version | Previous Version | Text Only | Print | Product List | Glossary On
Versions: 1 2 3 4 5 6 7 8 9 10 11 12 13 14 15 16 17 18 19
000
FTUS41 KALY 051138
TAFPOU
TAF
KPOU 051138Z 0512/0612 VRB03KT P6SM SCT250
     FM051400 28007KT P6SM SCT100 BKN200
     FM051700 28011G18KT P6SM SCT050 BKN100
     FM052200 29007KT P6SM FEW050
     FM060600 00000KT P6SM BKN250=

USA.gov is the U.S. government's official web portal to all federal, state and local government web resources and services.